createdAt,value
2023-04-02T00:00:37.711Z,1.05
2023-04-02T00:03:10.810Z,0.40
2023-04-02T00:05:51.179Z,1.02
2023-04-02T00:08:28.592Z,1.10
2023-04-02T00:11:00.445Z,0.40
2023-04-02T00:13:37.374Z,0.50
2023-04-02T00:16:08.294Z,2.10
2023-04-02T00:18:43.017Z,1.83
2023-04-02T00:21:24.587Z,2.03
2023-04-02T00:23:55.363Z,0.45
2023-04-02T00:26:32.241Z,1.48
2023-04-02T00:29:05.802Z,1.42
2023-04-02T00:31:35.157Z,1.27
2023-04-02T00:34:05.181Z,1.30
2023-04-02T00:36:34.963Z,0.77
2023-04-02T00:39:05.292Z,0.85
2023-04-02T00:41:36.522Z,0.65
2023-04-02T00:44:04.163Z,0.65
2023-04-02T00:46:47.517Z,0.93
2023-04-02T00:49:41.753Z,0.95
2023-04-02T00:52:19.231Z,0.90
2023-04-02T00:54:52.652Z,1.05
2023-04-02T00:57:25.938Z,1.08
2023-04-02T01:00:00.062Z,2.90
2023-04-02T01:02:31.259Z,3.13
2023-04-02T01:05:02.866Z,1.83
2023-04-02T01:07:46.178Z,0.77
2023-04-02T01:10:49.017Z,1.65
2023-04-02T01:13:48.277Z,1.33
2023-04-02T01:16:32.681Z,2.58
2023-04-02T01:19:02.425Z,1.33
2023-04-02T01:21:53.154Z,1.02
2023-04-02T01:24:22.207Z,0.35
2023-04-02T01:27:21.918Z,2.38
2023-04-02T01:29:57.080Z,4.03
2023-04-02T01:32:28.864Z,1.80
2023-04-02T01:34:57.098Z,1.30
2023-04-02T01:37:53.578Z,1.15
2023-04-02T01:40:38.918Z,1.70
2023-04-02T01:43:21.394Z,0.50
2023-04-02T01:45:48.627Z,1.30
2023-04-02T01:48:20.187Z,1.88
2023-04-02T01:50:51.865Z,1.13
2023-04-02T01:53:22.395Z,1.50
2023-04-02T01:55:53.557Z,0.65
2023-04-02T01:58:27.855Z,1.05
2023-04-02T02:01:15.863Z,1.35
2023-04-02T02:03:45.275Z,1.48
2023-04-02T02:06:18.423Z,1.52
2023-04-02T02:11:19.268Z,2.20
2023-04-02T02:13:55.383Z,0.50
2023-04-02T02:16:23.874Z,1.23
2023-04-02T02:18:57.834Z,1.30
2023-04-02T02:21:40.160Z,1.40
2023-04-02T02:24:31.039Z,1.73
2023-04-02T02:27:09.209Z,1.85
2023-04-02T02:29:41.318Z,0.73
2023-04-02T02:32:11.643Z,1.60
2023-04-02T02:34:48.714Z,1.48
2023-04-02T02:37:25.164Z,0.80
2023-04-02T02:39:55.950Z,4.75
2023-04-02T02:42:33.169Z,0.60
2023-04-02T02:45:05.505Z,2.15
2023-04-02T02:47:36.648Z,3.25
2023-04-02T02:50:18.646Z,0.60
2023-04-02T02:52:51.250Z,1.55
2023-04-02T02:58:37.313Z,0.88
2023-04-02T03:01:22.534Z,0.93
2023-04-02T03:03:55.624Z,1.15
2023-04-02T03:06:24.966Z,1.02
2023-04-02T03:09:05.786Z,1.23
2023-04-02T03:12:04.646Z,1.25
2023-04-02T03:14:51.727Z,2.95
2023-04-02T03:17:45.767Z,0.98
2023-04-02T03:20:31.243Z,1.33
2023-04-02T03:23:29.686Z,1.58
2023-04-02T03:26:00.681Z,0.93
2023-04-02T03:28:33.197Z,1.02
2023-04-02T03:31:09.213Z,0.77
2023-04-02T03:33:42.918Z,1.15
2023-04-02T03:36:20.502Z,2.30
2023-04-02T03:39:06.258Z,1.42
2023-04-02T03:41:59.460Z,1.00
2023-04-02T03:44:48.681Z,1.63
2023-04-02T03:47:25.543Z,1.27
2023-04-02T03:50:13.149Z,0.98
2023-04-02T03:52:40.987Z,0.68
2023-04-02T03:55:20.427Z,0.93
2023-04-02T03:58:12.329Z,1.23
2023-04-02T04:00:55.872Z,1.60
2023-04-02T04:03:36.991Z,0.57
2023-04-02T04:06:07.786Z,0.70
2023-04-02T04:08:44.103Z,0.75
2023-04-02T04:11:18.328Z,0.35
2023-04-02T04:14:18.836Z,1.35
2023-04-02T04:16:57.369Z,0.63
2023-04-02T04:19:39.723Z,0.65
2023-04-02T04:22:20.349Z,1.65
2023-04-02T04:24:51.398Z,0.60
2023-04-02T04:27:43.247Z,2.90
2023-04-02T04:30:29.330Z,1.08
2023-04-02T04:33:06.051Z,0.98
2023-04-02T04:35:44.219Z,1.13
2023-04-02T04:38:28.536Z,1.88
2023-04-02T04:41:05.811Z,0.82
2023-04-02T04:43:53.895Z,0.98
2023-04-02T04:47:08.012Z,1.38
2023-04-02T04:49:57.287Z,1.15
2023-04-02T04:52:28.442Z,1.58
2023-04-02T04:54:56.168Z,1.00
2023-04-02T04:57:35.678Z,0.93
2023-04-02T05:00:13.960Z,1.98
2023-04-02T05:03:06.472Z,0.50
2023-04-02T05:05:39.300Z,2.00
2023-04-02T05:08:21.353Z,1.10
2023-04-02T05:10:55.558Z,2.15
2023-04-02T05:13:39.695Z,1.20
2023-04-02T05:16:16.630Z,0.65
2023-04-02T05:18:51.626Z,0.45
2023-04-02T05:21:42.609Z,1.08
2023-04-02T05:24:39.204Z,1.35
2023-04-02T05:27:16.883Z,0.50
2023-04-02T05:29:50.628Z,1.40
2023-04-02T05:32:32.527Z,1.20
2023-04-02T05:35:00.366Z,2.05
2023-04-02T05:37:30.949Z,0.73
2023-04-02T05:40:13.822Z,1.65
2023-04-02T05:42:48.176Z,0.70
2023-04-02T05:47:45.985Z,1.33
2023-04-02T05:50:43.647Z,1.17
2023-04-02T05:53:22.471Z,2.03
2023-04-02T05:56:18.242Z,1.30
2023-04-02T05:59:15.690Z,0.95
2023-04-02T06:02:07.658Z,1.17
2023-04-02T06:05:01.602Z,1.08
2023-04-02T06:07:49.191Z,1.33
2023-04-02T06:10:49.001Z,1.85
2023-04-02T06:13:20.435Z,1.23
2023-04-02T06:15:48.466Z,0.40
2023-04-02T06:18:27.797Z,1.10
2023-04-02T06:20:58.133Z,0.50
2023-04-02T06:23:46.999Z,0.75
2023-04-02T06:26:27.469Z,1.17
2023-04-02T06:29:04.401Z,1.35
2023-04-02T06:31:45.888Z,1.70
2023-04-02T06:34:18.613Z,1.13
2023-04-02T06:37:10.341Z,1.10
2023-04-02T06:39:37.842Z,1.40
2023-04-02T06:42:20.987Z,1.30
2023-04-02T06:45:25.965Z,0.77
2023-04-02T06:48:21.873Z,1.17
2023-04-02T06:51:01.525Z,1.90
2023-04-02T06:53:36.573Z,0.90
2023-04-02T06:56:40.993Z,2.40
2023-04-02T06:59:08.893Z,1.30
2023-04-02T07:02:04.866Z,2.20
2023-04-02T07:04:33.291Z,1.30
2023-04-02T07:07:00.776Z,1.40
2023-04-02T07:09:33.228Z,2.08
2023-04-02T07:12:02.799Z,2.33
2023-04-02T07:14:30.342Z,1.55
2023-04-02T07:16:57.698Z,1.73
2023-04-02T07:19:24.869Z,1.13
2023-04-02T07:21:56.303Z,1.50
2023-04-02T07:24:25.556Z,2.05
2023-04-02T07:26:52.806Z,1.95
2023-04-02T07:29:20.245Z,1.25
2023-04-02T07:31:47.793Z,2.40
2023-04-02T07:34:15.063Z,2.90
2023-04-02T07:36:42.338Z,3.22
2023-04-02T07:39:09.588Z,1.83
2023-04-02T07:41:59.957Z,1.50
2023-04-02T07:44:27.901Z,3.50
2023-04-02T07:46:55.662Z,1.67
2023-04-02T07:49:23.205Z,1.52
2023-04-02T07:51:52.287Z,3.72
2023-04-02T07:54:19.485Z,1.80
2023-04-02T07:56:46.956Z,1.27
2023-04-02T07:59:14.210Z,1.42
2023-04-02T08:01:43.376Z,2.45
2023-04-02T08:04:22.593Z,3.10
2023-04-02T08:06:50.789Z,1.60
2023-04-02T08:09:18.130Z,1.45
2023-04-02T08:11:46.874Z,1.95
2023-04-02T08:14:14.613Z,1.60
2023-04-02T08:16:49.265Z,2.40
2023-04-02T08:19:17.240Z,2.70
2023-04-02T08:21:45.410Z,1.83
2023-04-02T08:24:12.622Z,1.20
2023-04-02T08:26:39.850Z,1.95
2023-04-02T08:29:07.236Z,1.40
2023-04-02T08:31:34.409Z,2.13
2023-04-02T08:34:02.010Z,1.90
2023-04-02T08:36:38.786Z,1.70
2023-04-02T08:39:11.371Z,1.75
2023-04-02T08:41:50.803Z,2.88
2023-04-02T08:44:47.150Z,1.95
2023-04-02T08:47:17.615Z,1.50
2023-04-02T08:50:04.987Z,1.48
2023-04-02T08:52:38.778Z,1.80
2023-04-02T08:55:33.298Z,2.38
2023-04-02T08:58:34.120Z,1.83
2023-04-02T09:01:04.671Z,2.33
2023-04-02T09:03:44.998Z,1.33
2023-04-02T09:06:17.207Z,1.02
2023-04-02T09:08:47.385Z,1.27
2023-04-02T09:11:39.087Z,1.30
2023-04-02T09:14:32.710Z,1.80
2023-04-02T09:17:03.367Z,1.75
2023-04-02T09:19:44.949Z,1.33
2023-04-02T09:22:18.270Z,1.23
2023-04-02T09:24:51.130Z,2.42
2023-04-02T09:27:24.188Z,1.42
2023-04-02T09:30:01.175Z,1.33
2023-04-02T09:32:48.520Z,1.02
2023-04-02T09:35:36.423Z,1.50
2023-04-02T09:38:24.282Z,1.38
2023-04-02T09:41:01.721Z,1.30
2023-04-02T09:43:32.186Z,0.68
2023-04-02T09:46:02.445Z,1.35
2023-04-02T09:48:35.102Z,1.33
2023-04-02T09:53:40.513Z,0.98
2023-04-02T09:56:22.072Z,0.50
2023-04-02T09:59:15.768Z,1.02
2023-04-02T10:01:48.298Z,0.82
2023-04-02T10:04:37.123Z,0.50
2023-04-02T10:07:06.916Z,1.35
2023-04-02T10:09:37.413Z,0.80
2023-04-02T10:12:14.596Z,0.60
2023-04-02T10:14:48.847Z,0.63
2023-04-02T10:17:22.422Z,1.98
2023-04-02T10:19:56.524Z,0.93
2023-04-02T10:22:23.908Z,1.17
2023-04-02T10:24:51.463Z,1.23
2023-04-02T10:27:33.900Z,1.65
2023-04-02T10:30:11.758Z,1.10
2023-04-02T10:33:01.490Z,1.50
2023-04-02T10:35:41.562Z,1.80
2023-04-02T10:38:17.614Z,0.57
2023-04-02T10:41:17.033Z,2.15
2023-04-02T10:43:51.181Z,0.80
2023-04-02T10:46:25.621Z,1.55
2023-04-02T10:48:56.116Z,0.80
2023-04-02T10:51:47.935Z,1.08
2023-04-02T10:54:43.504Z,1.27
2023-04-02T10:57:22.852Z,1.30
2023-04-02T11:00:11.435Z,1.35
2023-04-02T11:03:00.247Z,1.45
2023-04-02T11:05:33.222Z,1.35
2023-04-02T11:08:07.441Z,2.88
2023-04-02T11:10:39.914Z,1.23
2023-04-02T11:13:24.580Z,1.60
2023-04-02T11:15:52.214Z,2.25
2023-04-02T11:18:38.988Z,1.33
2023-04-02T11:21:54.837Z,1.30
2023-04-02T11:24:32.270Z,1.55
2023-04-02T11:27:31.132Z,1.98
2023-04-02T11:30:16.327Z,1.25
2023-04-02T11:32:47.746Z,2.03
2023-04-02T11:35:26.993Z,1.70
2023-04-02T11:37:57.243Z,1.20
2023-04-02T11:40:45.317Z,2.72
2023-04-02T11:43:34.593Z,1.88
2023-04-02T11:46:34.920Z,1.42
2023-04-02T11:49:40.305Z,1.58
2023-04-02T11:52:29.310Z,1.38
2023-04-02T11:55:24.946Z,2.53
2023-04-02T11:58:02.720Z,1.10
2023-04-02T12:01:01.876Z,1.13
2023-04-02T12:04:10.871Z,1.77
2023-04-02T12:07:13.201Z,1.90
2023-04-02T12:09:45.890Z,1.80
2023-04-02T12:14:51.378Z,1.27
2023-04-02T12:17:18.842Z,1.48
2023-04-02T12:19:54.887Z,1.83
2023-04-02T12:22:32.301Z,1.50
2023-04-02T12:25:07.456Z,1.08
2023-04-02T12:27:38.667Z,2.25
2023-04-02T12:30:23.070Z,1.40
2023-04-02T12:32:50.757Z,1.92
2023-04-02T12:35:34.525Z,2.90
2023-04-02T12:38:02.554Z,2.45
2023-04-02T12:40:30.139Z,2.72
2023-04-02T12:42:57.361Z,1.33
2023-04-02T12:45:31.694Z,2.42
2023-04-02T12:48:03.656Z,1.80
2023-04-02T12:50:31.057Z,1.83
2023-04-02T12:52:59.425Z,0.90
2023-04-02T12:55:27.862Z,1.13
2023-04-02T12:58:00.023Z,1.63
2023-04-02T13:00:30.315Z,1.92
2023-04-02T13:03:17.349Z,1.15
2023-04-02T13:05:56.697Z,2.42
2023-04-02T13:08:28.317Z,1.70
2023-04-02T13:11:01.639Z,1.60
2023-04-02T13:13:35.292Z,1.77
2023-04-02T13:16:07.220Z,1.98
2023-04-02T13:18:37.669Z,1.77
2023-04-02T13:21:07.663Z,1.98
2023-04-02T13:23:38.067Z,1.90
2023-04-02T13:26:22.340Z,2.30
2023-04-02T13:29:22.237Z,2.47
2023-04-02T13:31:50.196Z,1.98
2023-04-02T13:34:18.655Z,2.15
2023-04-02T13:36:46.873Z,2.53
2023-04-02T13:39:14.482Z,1.73
2023-04-02T13:41:43.570Z,2.10
2023-04-02T13:44:26.328Z,1.35
2023-04-02T13:46:54.830Z,1.15
2023-04-02T13:49:24.138Z,1.63
2023-04-02T13:52:00.878Z,1.92
2023-04-02T13:54:37.740Z,2.67
2023-04-02T13:57:05.007Z,2.05
2023-04-02T13:59:32.218Z,1.83
2023-04-02T14:02:17.993Z,2.03
2023-04-02T14:04:53.131Z,0.40
2023-04-02T14:07:47.391Z,0.60
2023-04-02T14:10:31.945Z,0.52
2023-04-02T14:13:17.062Z,0.93
2023-04-02T14:16:21.748Z,0.40
2023-04-02T14:18:54.872Z,0.60
2023-04-02T14:21:28.088Z,0.52
2023-04-02T14:24:14.962Z,0.63
2023-04-02T14:27:11.512Z,1.42
2023-04-02T14:30:02.735Z,0.80
2023-04-02T14:32:51.843Z,2.05
2023-04-02T14:35:29.339Z,0.85
2023-04-02T14:38:02.511Z,0.70
2023-04-02T14:40:42.530Z,0.75
2023-04-02T14:43:21.645Z,1.20
2023-04-02T14:46:01.987Z,2.70
2023-04-02T14:48:51.613Z,1.48
2023-04-02T14:51:41.118Z,0.73
2023-04-02T14:54:50.550Z,0.70
2023-04-02T14:57:21.886Z,1.10
2023-04-02T15:00:06.621Z,0.85
2023-04-02T15:02:45.246Z,1.23
2023-04-02T15:05:34.887Z,1.08
2023-04-02T15:08:07.412Z,1.08
2023-04-02T15:13:08.445Z,2.47
2023-04-02T15:15:44.629Z,0.73
2023-04-02T15:18:16.142Z,1.20
2023-04-02T15:20:55.368Z,1.63
2023-04-02T15:23:55.364Z,1.85
2023-04-02T15:26:35.084Z,1.42
2023-04-02T15:29:29.533Z,1.25
2023-04-02T15:32:08.676Z,1.83
2023-04-02T15:34:45.226Z,1.95
2023-04-02T15:37:28.878Z,1.95
2023-04-02T15:40:21.614Z,2.95
2023-04-02T15:43:21.630Z,2.88
2023-04-02T15:46:00.778Z,2.55
2023-04-02T15:48:41.186Z,2.70
2023-04-02T15:51:13.736Z,4.45
2023-04-02T15:57:04.737Z,2.33
2023-04-02T16:00:09.520Z,3.40
2023-04-02T16:03:03.061Z,2.70
2023-04-02T16:05:44.741Z,3.50
2023-04-02T16:08:36.645Z,3.28
2023-04-02T16:11:07.318Z,2.30
2023-04-02T16:13:37.362Z,4.18
2023-04-02T16:16:06.669Z,3.22
2023-04-02T16:18:59.123Z,2.92
2023-04-02T16:21:39.029Z,3.75
2023-04-02T16:24:15.332Z,3.58
2023-04-02T16:27:15.151Z,4.45
2023-04-02T16:29:55.501Z,3.85
2023-04-02T16:32:41.323Z,3.85
2023-04-02T16:38:21.642Z,3.70
2023-04-02T16:41:17.910Z,3.65
2023-04-02T16:43:50.757Z,4.60
2023-04-02T16:46:45.627Z,3.95
2023-04-02T16:49:31.553Z,3.92
2023-04-02T16:52:08.701Z,3.45
2023-04-02T16:55:04.581Z,3.60
2023-04-02T16:57:49.531Z,3.80
2023-04-02T17:00:23.381Z,3.33
2023-04-02T17:02:50.737Z,3.40
2023-04-02T17:05:32.729Z,3.85
2023-04-02T17:08:16.799Z,4.40
2023-04-02T17:11:01.249Z,4.43
2023-04-02T17:13:47.700Z,3.45
2023-04-02T17:16:29.053Z,3.92
2023-04-02T17:19:00.200Z,4.28
2023-04-02T17:21:31.558Z,4.15
2023-04-02T17:24:06.870Z,4.88
2023-04-02T17:26:37.935Z,4.68
2023-04-02T17:29:09.728Z,4.57
2023-04-02T17:31:38.470Z,4.53
2023-04-02T17:34:17.650Z,4.65
2023-04-02T17:36:57.584Z,5.30
2023-04-02T17:39:36.170Z,5.05
2023-04-02T17:42:13.152Z,5.35
2023-04-02T17:44:59.199Z,5.22
2023-04-02T17:47:52.689Z,5.35
2023-04-02T17:50:35.810Z,5.32
2023-04-02T17:53:34.282Z,5.68
2023-04-02T17:56:13.820Z,4.95
2023-04-02T17:58:41.060Z,5.28
2023-04-02T18:01:20.819Z,5.63
2023-04-02T18:04:32.452Z,6.05
2023-04-02T18:07:07.760Z,5.75
2023-04-02T18:09:37.723Z,6.15
2023-04-02T18:12:50.336Z,5.75
2023-04-02T18:15:46.520Z,6.55
2023-04-02T18:18:35.271Z,6.15
2023-04-02T18:21:32.255Z,6.68
2023-04-02T18:24:08.034Z,6.55
2023-04-02T18:26:50.450Z,7.25
2023-04-02T18:29:56.410Z,6.78
2023-04-02T18:32:44.568Z,5.30
2023-04-02T18:35:26.824Z,6.13
2023-04-02T18:38:11.857Z,6.15
2023-04-02T18:41:22.137Z,5.53
2023-04-02T18:43:57.457Z,5.20
2023-04-02T18:46:53.332Z,5.72
2023-04-02T18:49:37.446Z,6.40
2023-04-02T18:52:14.788Z,6.15
2023-04-02T18:54:53.013Z,5.85
2023-04-02T18:57:26.703Z,6.35
2023-04-02T19:00:19.295Z,6.10
2023-04-02T19:02:57.090Z,6.85
2023-04-02T19:05:36.754Z,6.85
2023-04-02T19:08:36.606Z,6.10
2023-04-02T19:11:16.344Z,7.82
2023-04-02T19:13:45.477Z,6.82
2023-04-02T19:16:24.708Z,7.57
2023-04-02T19:19:12.187Z,7.85
2023-04-02T19:21:39.319Z,6.75
2023-04-02T19:24:24.378Z,7.90
2023-04-02T19:27:06.189Z,6.95
2023-04-02T19:29:50.197Z,7.45
2023-04-02T19:32:26.362Z,8.48
2023-04-02T19:35:23.840Z,7.57
2023-04-02T19:38:09.318Z,7.25
2023-04-02T19:40:55.288Z,6.88
2023-04-02T19:43:22.536Z,6.07
2023-04-02T19:45:50.158Z,5.72
2023-04-02T19:48:20.406Z,6.30
2023-04-02T19:50:49.753Z,6.95
2023-04-02T19:53:17.482Z,6.72
2023-04-02T19:55:45.870Z,6.97
2023-04-02T19:58:25.466Z,6.05
2023-04-02T20:00:52.696Z,6.07
2023-04-02T20:03:20.184Z,7.53
2023-04-02T20:05:47.578Z,6.90
2023-04-02T20:08:15.186Z,6.38
2023-04-02T20:10:43.079Z,7.10
2023-04-02T20:13:10.450Z,6.45
2023-04-02T20:15:40.199Z,7.20
2023-04-02T20:18:07.688Z,7.82
2023-04-02T20:20:35.284Z,11.18
2023-04-02T20:23:02.780Z,6.60
2023-04-02T20:25:29.959Z,7.05
2023-04-02T20:27:57.232Z,7.13
2023-04-02T20:30:24.509Z,7.30
2023-04-02T20:32:51.833Z,7.00
2023-04-02T20:35:19.032Z,7.47
2023-04-02T20:37:46.292Z,7.20
2023-04-02T20:40:13.643Z,6.70
2023-04-02T20:42:40.982Z,6.63
2023-04-02T20:45:09.513Z,8.10
2023-04-02T20:47:36.910Z,6.60
2023-04-02T20:50:04.566Z,7.63
2023-04-02T20:52:33.885Z,7.70
2023-04-02T20:55:02.173Z,8.27
2023-04-02T20:57:30.903Z,8.23
2023-04-02T20:59:59.372Z,8.43
2023-04-02T21:02:26.647Z,7.85
2023-04-02T21:04:53.860Z,7.82
2023-04-02T21:07:21.133Z,7.60
2023-04-02T21:09:48.413Z,9.75
2023-04-02T21:12:16.428Z,7.93
2023-04-02T21:14:43.647Z,8.45
2023-04-02T21:17:11.496Z,8.43
2023-04-02T21:19:38.662Z,8.05
2023-04-02T21:22:06.052Z,9.27
2023-04-02T21:24:33.309Z,9.45
2023-04-02T21:27:01.341Z,9.85
2023-04-02T21:29:28.558Z,9.55
2023-04-02T21:31:55.810Z,10.20
2023-04-02T21:34:23.132Z,10.32
2023-04-02T21:36:50.882Z,7.95
2023-04-02T21:39:21.704Z,8.80
2023-04-02T21:41:51.278Z,10.05
2023-04-02T21:44:22.860Z,8.45
2023-04-02T21:46:52.979Z,9.63
2023-04-02T21:49:26.757Z,9.30
2023-04-02T21:51:54.447Z,10.57
2023-04-02T21:54:21.936Z,10.23
2023-04-02T21:56:50.216Z,10.55
2023-04-02T21:59:18.569Z,10.25
2023-04-02T22:01:49.000Z,11.05
2023-04-02T22:04:25.709Z,12.25
2023-04-02T22:06:54.073Z,9.35
2023-04-02T22:09:25.015Z,11.25
2023-04-02T22:11:55.757Z,11.50
2023-04-02T22:14:23.518Z,11.80
2023-04-02T22:16:50.945Z,11.68
2023-04-02T22:19:18.226Z,12.75
2023-04-02T22:21:46.539Z,9.25
2023-04-02T22:24:16.433Z,9.93
2023-04-02T22:26:44.669Z,11.02
2023-04-02T22:29:11.984Z,9.82
2023-04-02T22:31:39.214Z,8.45
2023-04-02T22:34:07.532Z,10.15
2023-04-02T22:36:35.630Z,11.35
2023-04-02T22:39:06.064Z,8.50
2023-04-02T22:41:33.675Z,7.80
2023-04-02T22:44:01.984Z,8.90
2023-04-02T22:46:30.344Z,9.85
2023-04-02T22:48:57.852Z,9.52
2023-04-02T22:51:26.382Z,10.13
2023-04-02T22:53:55.798Z,9.30
2023-04-02T22:56:27.083Z,8.05
2023-04-02T22:58:54.259Z,8.35
2023-04-02T23:01:28.447Z,9.25
2023-04-02T23:03:56.670Z,8.73
2023-04-02T23:06:24.965Z,9.73
2023-04-02T23:08:52.545Z,7.63
2023-04-02T23:11:23.003Z,8.60
2023-04-02T23:13:52.572Z,8.85
2023-04-02T23:16:21.665Z,9.55
2023-04-02T23:18:50.143Z,8.70
2023-04-02T23:21:18.948Z,10.82
2023-04-02T23:23:46.700Z,9.27
2023-04-02T23:26:18.316Z,9.18
2023-04-02T23:28:46.128Z,10.02
2023-04-02T23:31:17.098Z,9.43
2023-04-02T23:33:44.432Z,7.65
2023-04-02T23:36:16.759Z,8.80
2023-04-02T23:41:17.912Z,8.57
2023-04-02T23:43:45.208Z,7.47
2023-04-02T23:46:12.558Z,8.77
2023-04-02T23:48:40.425Z,10.45
2023-04-02T23:51:07.701Z,9.65
2023-04-02T23:53:35.649Z,8.95
2023-04-02T23:56:02.918Z,9.43
2023-04-02T23:58:30.232Z,6.95
